createdAt,value
2018-05-25T00:01:57.111Z,18.80
2018-05-25T00:04:24.641Z,18.80
2018-05-25T00:06:52.164Z,18.90
2018-05-25T00:09:20.339Z,18.90
2018-05-25T00:11:47.859Z,18.90
2018-05-25T00:14:15.425Z,18.90
2018-05-25T00:16:42.965Z,18.90
2018-05-25T00:19:11.259Z,18.90
2018-05-25T00:21:38.772Z,18.90
2018-05-25T00:24:06.292Z,18.90
2018-05-25T00:26:33.811Z,18.90
2018-05-25T00:29:02.098Z,18.90
2018-05-25T00:31:29.687Z,18.90
2018-05-25T00:33:57.216Z,18.90
2018-05-25T00:36:25.510Z,18.90
2018-05-25T00:38:53.082Z,18.90
2018-05-25T00:41:20.591Z,18.90
2018-05-25T00:43:48.109Z,18.90
2018-05-25T00:46:15.632Z,18.90
2018-05-25T00:48:43.152Z,18.90
2018-05-25T00:51:10.675Z,18.90
2018-05-25T00:53:38.203Z,18.90
2018-05-25T00:56:05.722Z,18.90
2018-05-25T00:58:33.253Z,18.90
2018-05-25T01:01:00.770Z,18.90
2018-05-25T01:03:28.287Z,18.90
2018-05-25T01:05:55.811Z,18.90
2018-05-25T01:08:23.332Z,18.80
2018-05-25T01:10:50.868Z,18.80
2018-05-25T01:13:18.416Z,18.80
2018-05-25T01:15:45.947Z,18.80
2018-05-25T01:18:14.235Z,18.80
2018-05-25T01:20:41.754Z,18.80
2018-05-25T01:23:09.278Z,18.70
2018-05-25T01:25:36.791Z,18.70
2018-05-25T01:28:04.313Z,18.80
2018-05-25T01:30:31.831Z,18.70
2018-05-25T01:33:00.112Z,18.80
2018-05-25T01:35:27.648Z,18.70
2018-05-25T01:37:55.174Z,18.70
2018-05-25T01:40:22.686Z,18.70
2018-05-25T01:42:50.205Z,18.70
2018-05-25T01:45:17.727Z,18.70
2018-05-25T01:47:45.256Z,18.70
2018-05-25T01:50:12.779Z,18.70
2018-05-25T01:52:40.303Z,18.70
2018-05-25T01:55:07.827Z,18.70
2018-05-25T01:57:35.354Z,18.70
2018-05-25T02:00:02.880Z,18.70
2018-05-25T02:02:30.404Z,18.70
2018-05-25T02:04:57.929Z,18.70
2018-05-25T02:07:25.446Z,18.70
2018-05-25T02:09:52.966Z,18.70
2018-05-25T02:12:20.494Z,18.60
2018-05-25T02:14:48.015Z,18.60
2018-05-25T02:17:16.302Z,18.60
2018-05-25T02:19:43.830Z,18.60
2018-05-25T02:22:11.359Z,18.60
2018-05-25T02:24:38.887Z,18.60
2018-05-25T02:27:07.171Z,18.50
2018-05-25T02:29:34.687Z,18.50
2018-05-25T02:32:02.207Z,18.50
2018-05-25T02:34:29.741Z,18.50
2018-05-25T02:36:58.024Z,18.60
2018-05-25T02:39:25.555Z,18.50
2018-05-25T02:41:53.101Z,18.60
2018-05-25T02:44:20.633Z,18.50
2018-05-25T02:46:48.184Z,18.50
2018-05-25T02:49:15.700Z,18.50
2018-05-25T02:51:43.290Z,18.50
2018-05-25T02:54:10.808Z,18.40
2018-05-25T02:56:38.336Z,18.40
2018-05-25T02:59:05.855Z,18.40
2018-05-25T03:01:34.136Z,18.40
2018-05-25T03:04:01.651Z,18.40
2018-05-25T03:06:29.171Z,18.40
2018-05-25T03:08:56.684Z,18.40
2018-05-25T03:11:24.219Z,18.40
2018-05-25T03:13:51.748Z,18.30
2018-05-25T03:16:19.271Z,18.30
2018-05-25T03:18:46.791Z,18.30
2018-05-25T03:21:14.315Z,18.30
2018-05-25T03:23:41.832Z,18.20
2018-05-25T03:26:09.366Z,18.20
2018-05-25T03:28:36.894Z,18.30
2018-05-25T03:31:05.183Z,18.20
2018-05-25T03:33:32.714Z,18.20
2018-05-25T03:36:00.242Z,18.20
2018-05-25T03:38:27.756Z,18.20
2018-05-25T03:40:56.034Z,18.20
2018-05-25T03:43:23.547Z,18.20
2018-05-25T03:45:51.068Z,18.20
2018-05-25T03:48:18.591Z,18.20
2018-05-25T03:50:46.111Z,18.20
2018-05-25T03:53:13.627Z,18.20
2018-05-25T03:55:41.906Z,18.20
2018-05-25T03:58:10.442Z,18.20
2018-05-25T04:00:49.710Z,18.20
2018-05-25T04:03:17.856Z,18.20
2018-05-25T04:05:45.376Z,18.30
2018-05-25T04:08:12.908Z,18.30
2018-05-25T04:10:41.686Z,18.40
2018-05-25T04:13:10.068Z,18.40
2018-05-25T04:15:37.587Z,18.40
2018-05-25T04:18:05.107Z,18.40
2018-05-25T04:20:32.639Z,18.40
2018-05-25T04:23:00.160Z,18.40
2018-05-25T04:25:27.688Z,18.50
2018-05-25T04:27:55.215Z,18.50
2018-05-25T04:30:22.739Z,18.60
2018-05-25T04:32:50.280Z,18.60
2018-05-25T04:35:17.808Z,18.60
2018-05-25T04:37:45.325Z,18.60
2018-05-25T04:40:12.843Z,18.60
2018-05-25T04:42:40.359Z,18.70
2018-05-25T04:45:07.897Z,18.70
2018-05-25T04:47:35.414Z,18.70
2018-05-25T04:50:02.931Z,18.80
2018-05-25T04:52:30.485Z,18.80
2018-05-25T04:54:57.987Z,18.80
2018-05-25T04:57:25.503Z,18.80
2018-05-25T04:59:53.024Z,18.90
2018-05-25T05:02:20.559Z,18.90
2018-05-25T05:04:48.090Z,18.90
2018-05-25T05:07:15.607Z,19.00
2018-05-25T05:09:43.123Z,19.00
2018-05-25T05:12:10.639Z,19.00
2018-05-25T05:14:38.159Z,19.00
2018-05-25T05:17:05.697Z,19.00
2018-05-25T05:19:33.263Z,19.00
2018-05-25T05:22:00.795Z,19.10
2018-05-25T05:24:28.318Z,19.10
2018-05-25T05:26:55.844Z,19.10
2018-05-25T05:29:23.372Z,19.20
2018-05-25T05:31:50.884Z,19.30
2018-05-25T05:34:18.407Z,19.20
2018-05-25T05:36:45.968Z,19.30
2018-05-25T05:39:13.499Z,19.30
2018-05-25T05:41:41.014Z,19.30
2018-05-25T05:44:08.538Z,19.40
2018-05-25T05:46:36.063Z,19.40
2018-05-25T05:49:04.352Z,19.50
2018-05-25T05:51:31.884Z,19.50
2018-05-25T05:53:59.400Z,19.50
2018-05-25T05:56:26.907Z,19.50
2018-05-25T05:58:54.440Z,19.70
2018-05-25T06:01:21.964Z,19.80
2018-05-25T06:03:49.496Z,19.90
2018-05-25T06:06:17.040Z,20.00
2018-05-25T06:08:44.591Z,20.10
2018-05-25T06:11:12.543Z,20.20
2018-05-25T06:13:40.118Z,20.30
2018-05-25T06:16:07.645Z,20.50
2018-05-25T06:18:35.184Z,20.60
2018-05-25T06:21:02.698Z,20.60
2018-05-25T06:23:30.983Z,20.80
2018-05-25T06:25:58.516Z,20.80
2018-05-25T06:28:26.032Z,20.90
2018-05-25T06:30:54.361Z,21.20
2018-05-25T06:33:21.884Z,21.10
2018-05-25T06:35:49.415Z,21.30
2018-05-25T06:38:16.935Z,21.40
2018-05-25T06:40:44.498Z,21.60
2018-05-25T06:43:12.023Z,21.70
2018-05-25T06:45:39.551Z,22.10
2018-05-25T06:48:07.074Z,22.90
2018-05-25T06:50:34.591Z,23.10
2018-05-25T06:53:02.879Z,23.80
2018-05-25T06:55:30.444Z,23.70
2018-05-25T06:57:58.035Z,24.40
2018-05-25T07:00:26.309Z,25.50
2018-05-25T07:02:53.843Z,25.50
2018-05-25T07:05:21.361Z,25.80
2018-05-25T07:07:48.885Z,26.10
2018-05-25T07:10:16.405Z,26.10
2018-05-25T07:12:43.931Z,26.20
2018-05-25T07:15:11.446Z,26.10
2018-05-25T07:17:38.963Z,26.40
2018-05-25T07:20:06.479Z,26.80
2018-05-25T07:22:34.000Z,27.20
2018-05-25T07:25:01.533Z,27.80
2018-05-25T07:27:29.074Z,28.30
2018-05-25T07:29:56.595Z,28.50
2018-05-25T07:32:24.120Z,28.70
2018-05-25T07:34:51.640Z,28.60
2018-05-25T07:37:19.151Z,28.40
2018-05-25T07:39:46.672Z,28.00
2018-05-25T07:42:14.195Z,27.90
2018-05-25T07:44:41.773Z,28.20
2018-05-25T07:47:09.294Z,28.30
2018-05-25T07:49:37.617Z,28.40
2018-05-25T07:52:05.157Z,28.40
2018-05-25T07:54:32.681Z,28.20
2018-05-25T07:57:00.198Z,27.90
2018-05-25T07:59:27.714Z,27.80
2018-05-25T08:01:55.239Z,29.30
2018-05-25T08:04:22.756Z,30.70
2018-05-25T08:06:50.280Z,31.30
2018-05-25T08:09:17.807Z,32.70
2018-05-25T08:11:45.341Z,33.50
2018-05-25T08:14:12.855Z,33.20
2018-05-25T08:16:40.369Z,32.50
2018-05-25T08:19:07.892Z,32.10
2018-05-25T08:21:35.415Z,32.60
2018-05-25T08:24:02.936Z,32.80
2018-05-25T08:26:30.473Z,32.40
2018-05-25T08:28:58.007Z,32.10
2018-05-25T08:31:25.527Z,31.80
2018-05-25T08:33:53.044Z,31.40
2018-05-25T08:36:20.564Z,31.00
2018-05-25T08:38:48.860Z,30.30
2018-05-25T08:41:16.413Z,30.30
2018-05-25T08:43:43.931Z,30.10
2018-05-25T08:46:11.677Z,29.80
2018-05-25T08:48:38.998Z,29.60
2018-05-25T08:51:06.521Z,29.40
2018-05-25T08:53:34.043Z,29.20
2018-05-25T08:56:01.588Z,29.10
2018-05-25T08:58:29.120Z,29.00
2018-05-25T09:00:56.638Z,28.90
2018-05-25T09:03:24.151Z,28.90
2018-05-25T09:05:52.441Z,28.80
2018-05-25T09:08:19.962Z,28.80
2018-05-25T09:10:47.488Z,28.80
2018-05-25T09:13:15.007Z,28.50
2018-05-25T09:15:42.539Z,28.40
2018-05-25T09:18:10.063Z,28.40
2018-05-25T09:20:37.580Z,28.40
2018-05-25T09:23:05.099Z,28.50
2018-05-25T09:25:32.627Z,28.60
2018-05-25T09:28:00.139Z,28.80
2018-05-25T09:30:27.655Z,28.90
2018-05-25T09:32:55.179Z,29.20
2018-05-25T09:35:22.959Z,29.30
2018-05-25T09:37:50.471Z,29.30
2018-05-25T09:40:17.995Z,29.40
2018-05-25T09:42:45.504Z,29.50
2018-05-25T09:45:13.305Z,29.70
2018-05-25T09:47:40.828Z,29.70
2018-05-25T09:50:08.343Z,29.60
2018-05-25T09:52:35.867Z,29.50
2018-05-25T09:55:03.375Z,29.60
2018-05-25T09:57:30.907Z,29.70
2018-05-25T09:59:58.442Z,29.80
2018-05-25T10:02:25.967Z,29.60
2018-05-25T10:04:53.487Z,29.30
2018-05-25T10:07:21.007Z,29.00
2018-05-25T10:09:49.031Z,28.90
2018-05-25T10:12:16.553Z,28.80
2018-05-25T10:14:44.594Z,28.90
2018-05-25T10:17:12.107Z,29.00
2018-05-25T10:19:40.231Z,29.00
2018-05-25T10:22:07.744Z,29.20
2018-05-25T10:24:35.271Z,29.50
2018-05-25T10:27:02.810Z,29.60
2018-05-25T10:29:30.324Z,29.60
2018-05-25T10:31:57.883Z,29.50
2018-05-25T10:34:25.401Z,29.50
2018-05-25T10:36:52.922Z,29.50
2018-05-25T10:39:20.540Z,29.30
2018-05-25T10:41:48.086Z,29.20
2018-05-25T10:44:15.610Z,29.20
2018-05-25T10:46:43.123Z,29.00
2018-05-25T10:49:10.630Z,28.80
2018-05-25T10:51:38.140Z,28.70
2018-05-25T10:54:05.874Z,28.60
2018-05-25T10:56:33.444Z,28.50
2018-05-25T10:59:00.955Z,28.30
2018-05-25T11:01:28.485Z,28.30
2018-05-25T11:03:56.009Z,28.20
2018-05-25T11:06:23.527Z,28.10
2018-05-25T11:08:51.046Z,28.00
2018-05-25T11:11:18.575Z,28.00
2018-05-25T11:13:46.855Z,28.20
2018-05-25T11:16:14.367Z,28.20
2018-05-25T11:18:41.887Z,28.20
2018-05-25T11:21:09.399Z,28.30
2018-05-25T11:23:36.921Z,28.30
2018-05-25T11:26:04.440Z,28.30
2018-05-25T11:28:31.955Z,28.30
2018-05-25T11:30:59.467Z,28.40
2018-05-25T11:33:26.980Z,28.50
2018-05-25T11:35:54.500Z,28.50
2018-05-25T11:38:22.012Z,28.50
2018-05-25T11:40:49.543Z,28.50
2018-05-25T11:43:17.060Z,28.60
2018-05-25T11:45:45.362Z,28.90
2018-05-25T11:48:12.881Z,28.90
2018-05-25T11:50:40.397Z,29.00
2018-05-25T11:53:07.907Z,28.90
2018-05-25T11:55:35.427Z,28.90
2018-05-25T11:58:02.943Z,28.50
2018-05-25T12:00:30.451Z,28.40
2018-05-25T12:02:57.975Z,28.50
2018-05-25T12:05:25.487Z,28.70
2018-05-25T12:07:53.005Z,28.90
2018-05-25T12:10:20.512Z,29.20
2018-05-25T12:12:48.024Z,29.40
2018-05-25T12:15:15.540Z,29.50
2018-05-25T12:17:43.052Z,29.30
2018-05-25T12:20:10.567Z,29.10
2018-05-25T12:22:38.087Z,28.90
2018-05-25T12:25:05.616Z,28.80
2018-05-25T12:27:33.127Z,28.70
2018-05-25T12:30:00.639Z,28.60
2018-05-25T12:32:28.152Z,28.10
2018-05-25T12:34:55.707Z,27.80
2018-05-25T12:37:23.228Z,27.50
2018-05-25T12:39:51.431Z,27.40
2018-05-25T12:42:18.939Z,27.40
2018-05-25T12:44:58.415Z,27.20
2018-05-25T12:47:25.956Z,27.50
2018-05-25T12:49:53.479Z,27.60
2018-05-25T12:52:20.994Z,27.70
2018-05-25T12:54:49.234Z,27.90
2018-05-25T12:57:17.508Z,27.90
2018-05-25T12:59:45.016Z,27.90
2018-05-25T13:02:12.528Z,27.80
2018-05-25T13:04:40.810Z,27.50
2018-05-25T13:07:08.328Z,27.50
2018-05-25T13:09:35.843Z,27.50
2018-05-25T13:12:03.363Z,27.50
2018-05-25T13:14:30.879Z,27.10
2018-05-25T13:16:58.391Z,26.90
2018-05-25T13:19:25.899Z,26.80
2018-05-25T13:21:53.414Z,26.80
2018-05-25T13:24:20.927Z,26.90
2018-05-25T13:26:48.440Z,26.90
2018-05-25T13:29:15.956Z,26.90
2018-05-25T13:31:43.496Z,26.80
2018-05-25T13:34:11.513Z,26.80
2018-05-25T13:36:39.054Z,26.70
2018-05-25T13:39:06.576Z,26.70
2018-05-25T13:41:34.088Z,26.80
2018-05-25T13:44:01.600Z,26.80
2018-05-25T13:46:29.112Z,26.70
2018-05-25T13:48:56.623Z,26.70
2018-05-25T13:51:24.152Z,26.80
2018-05-25T13:53:51.663Z,26.90
2018-05-25T13:56:19.176Z,26.90
2018-05-25T13:58:47.453Z,26.90
2018-05-25T14:01:15.331Z,26.90
2018-05-25T14:03:42.835Z,27.00
2018-05-25T14:06:10.348Z,27.20
2018-05-25T14:08:37.859Z,27.30
2018-05-25T14:11:05.372Z,27.60
2018-05-25T14:13:32.895Z,27.90
2018-05-25T14:16:00.420Z,28.10
2018-05-25T14:18:27.932Z,28.00
2018-05-25T14:20:55.455Z,27.90
2018-05-25T14:23:23.755Z,27.60
2018-05-25T14:25:51.267Z,27.50
2018-05-25T14:28:18.802Z,27.30
2018-05-25T14:30:46.323Z,27.10
2018-05-25T14:33:13.836Z,26.90
2018-05-25T14:35:41.347Z,26.70
2018-05-25T14:38:08.867Z,26.50
2018-05-25T14:40:36.378Z,26.50
2018-05-25T14:43:03.892Z,26.40
2018-05-25T14:45:31.408Z,26.40
2018-05-25T14:47:59.702Z,26.30
2018-05-25T14:50:27.540Z,26.30
2018-05-25T14:52:55.109Z,26.30
2018-05-25T14:55:22.604Z,26.40
2018-05-25T14:57:50.119Z,26.50
2018-05-25T15:00:17.640Z,26.50
2018-05-25T15:02:45.559Z,26.50
2018-05-25T15:05:13.079Z,26.60
2018-05-25T15:07:40.593Z,26.70
2018-05-25T15:10:08.868Z,26.80
2018-05-25T15:12:36.380Z,26.80
2018-05-25T15:15:03.894Z,26.90
2018-05-25T15:17:31.416Z,26.90
2018-05-25T15:19:58.933Z,27.00
2018-05-25T15:22:26.460Z,26.90
2018-05-25T15:24:53.983Z,26.80
2018-05-25T15:27:21.531Z,26.70
2018-05-25T15:29:49.070Z,26.70
2018-05-25T15:32:16.583Z,26.70
2018-05-25T15:34:44.092Z,26.60
2018-05-25T15:37:11.605Z,26.60
2018-05-25T15:39:39.115Z,26.50
2018-05-25T15:42:06.631Z,26.50
2018-05-25T15:44:34.911Z,26.50
2018-05-25T15:47:02.438Z,26.40
2018-05-25T15:49:29.955Z,26.30
2018-05-25T15:51:57.468Z,26.30
2018-05-25T15:54:24.987Z,26.20
2018-05-25T15:56:52.499Z,26.20
2018-05-25T15:59:20.044Z,26.10
2018-05-25T16:01:47.555Z,26.10
2018-05-25T16:04:15.072Z,26.00
2018-05-25T16:06:42.592Z,26.10
2018-05-25T16:09:10.104Z,26.00
2018-05-25T16:11:38.387Z,26.30
2018-05-25T16:14:05.901Z,26.30
2018-05-25T16:16:33.403Z,26.50
2018-05-25T16:19:00.912Z,26.60
2018-05-25T16:21:28.422Z,26.60
2018-05-25T16:23:56.695Z,26.60
2018-05-25T16:26:24.223Z,26.60
2018-05-25T16:28:51.777Z,26.60
2018-05-25T16:31:19.266Z,26.50
2018-05-25T16:33:46.775Z,26.40
2018-05-25T16:36:14.289Z,26.40
2018-05-25T16:38:41.798Z,26.30
2018-05-25T16:41:09.312Z,26.30
2018-05-25T16:43:36.828Z,26.30
2018-05-25T16:46:04.353Z,26.40
2018-05-25T16:48:31.882Z,26.40
2018-05-25T16:50:59.391Z,26.40
2018-05-25T16:53:26.903Z,26.40
2018-05-25T16:55:54.450Z,26.50
2018-05-25T16:58:21.947Z,26.50
2018-05-25T17:00:49.573Z,26.50
2018-05-25T17:03:17.103Z,26.50
2018-05-25T17:05:44.616Z,26.50
2018-05-25T17:08:12.123Z,26.50
2018-05-25T17:10:39.640Z,26.50
2018-05-25T17:13:07.915Z,26.40
2018-05-25T17:15:35.435Z,26.40
2018-05-25T17:18:02.960Z,26.40
2018-05-25T17:20:30.487Z,26.30
2018-05-25T17:22:58.778Z,26.10
2018-05-25T17:25:26.291Z,26.00
2018-05-25T17:27:53.803Z,26.00
2018-05-25T17:30:21.316Z,25.90
2018-05-25T17:32:48.826Z,25.90
2018-05-25T17:35:16.343Z,25.80
2018-05-25T17:37:43.851Z,25.70
2018-05-25T17:40:11.364Z,25.50
2018-05-25T17:42:38.867Z,25.50
2018-05-25T17:45:06.383Z,25.40
2018-05-25T17:47:33.887Z,25.40
2018-05-25T17:50:01.403Z,25.30
2018-05-25T17:52:28.921Z,25.20
2018-05-25T17:54:56.443Z,25.20
2018-05-25T17:57:24.738Z,25.10
2018-05-25T17:59:53.156Z,25.00
2018-05-25T18:02:20.677Z,25.00
2018-05-25T18:04:48.187Z,25.00
2018-05-25T18:07:15.695Z,25.00
2018-05-25T18:09:43.220Z,24.90
2018-05-25T18:12:10.736Z,24.90
2018-05-25T18:14:38.251Z,24.90
2018-05-25T18:17:05.774Z,24.90
2018-05-25T18:19:33.279Z,24.90
2018-05-25T18:22:00.794Z,24.90
2018-05-25T18:24:28.387Z,24.90
2018-05-25T18:26:55.898Z,24.80
2018-05-25T18:29:23.416Z,24.80
2018-05-25T18:31:51.695Z,24.70
2018-05-25T18:34:19.212Z,24.70
2018-05-25T18:36:46.737Z,24.70
2018-05-25T18:39:14.251Z,24.60
2018-05-25T18:41:41.764Z,24.60
2018-05-25T18:44:09.275Z,24.60
2018-05-25T18:46:36.788Z,24.60
2018-05-25T18:49:04.301Z,24.50
2018-05-25T18:51:31.811Z,24.50
2018-05-25T18:54:11.283Z,24.40
2018-05-25T18:56:38.794Z,24.40
2018-05-25T18:59:06.316Z,24.40
2018-05-25T19:01:34.539Z,24.30
2018-05-25T19:04:03.063Z,24.30
2018-05-25T19:06:31.410Z,24.20
2018-05-25T19:08:58.919Z,24.20
2018-05-25T19:11:26.431Z,24.10
2018-05-25T19:13:53.964Z,24.10
2018-05-25T19:16:21.487Z,24.10
2018-05-25T19:18:48.994Z,24.00
2018-05-25T19:21:16.535Z,24.00
2018-05-25T19:23:44.051Z,23.90
2018-05-25T19:26:11.576Z,23.80
2018-05-25T19:28:39.091Z,23.70
2018-05-25T19:31:06.607Z,23.70
2018-05-25T19:33:34.123Z,23.70
2018-05-25T19:36:01.647Z,23.60
2018-05-25T19:38:29.151Z,23.60
2018-05-25T19:40:57.428Z,23.40
2018-05-25T19:43:24.947Z,23.40
2018-05-25T19:45:52.455Z,23.40
2018-05-25T19:48:19.981Z,23.30
2018-05-25T19:50:47.504Z,23.30
2018-05-25T19:53:15.020Z,23.20
2018-05-25T19:55:42.884Z,23.10
2018-05-25T19:58:10.404Z,23.10
2018-05-25T20:00:37.928Z,23.00
2018-05-25T20:03:05.452Z,22.90
2018-05-25T20:05:32.960Z,22.90
2018-05-25T20:08:00.475Z,22.80
2018-05-25T20:10:27.986Z,22.80
2018-05-25T20:12:55.501Z,22.70
2018-05-25T20:15:23.018Z,22.70
2018-05-25T20:17:50.530Z,22.60
2018-05-25T20:20:18.803Z,22.60
2018-05-25T20:22:46.318Z,22.50
2018-05-25T20:25:13.848Z,22.50
2018-05-25T20:27:41.365Z,22.50
2018-05-25T20:30:08.887Z,22.40
2018-05-25T20:32:36.405Z,22.40
2018-05-25T20:35:03.960Z,22.30
2018-05-25T20:37:31.459Z,22.30
2018-05-25T20:39:58.972Z,22.20
2018-05-25T20:42:26.488Z,22.10
2018-05-25T20:44:54.000Z,22.10
2018-05-25T20:47:21.519Z,22.00
2018-05-25T20:49:49.044Z,22.00
2018-05-25T20:52:16.609Z,21.90
2018-05-25T20:54:44.104Z,21.90
2018-05-25T20:57:11.620Z,21.90
2018-05-25T20:59:39.144Z,21.90
2018-05-25T21:02:06.667Z,21.80
2018-05-25T21:04:34.227Z,21.80
2018-05-25T21:07:01.743Z,21.80
2018-05-25T21:09:30.031Z,21.70
2018-05-25T21:11:57.552Z,21.70
2018-05-25T21:14:25.077Z,21.70
2018-05-25T21:16:52.599Z,21.70
2018-05-25T21:19:20.880Z,21.70
2018-05-25T21:21:48.404Z,21.60
2018-05-25T21:24:15.929Z,21.70
2018-05-25T21:26:43.460Z,21.70
2018-05-25T21:29:11.744Z,21.60
2018-05-25T21:31:39.275Z,21.60
2018-05-25T21:34:06.791Z,21.60
2018-05-25T21:36:34.316Z,21.60
2018-05-25T21:39:02.595Z,21.60
2018-05-25T21:41:30.111Z,21.50
2018-05-25T21:43:57.639Z,21.50
2018-05-25T21:46:25.162Z,21.50
2018-05-25T21:48:52.679Z,21.50
2018-05-25T21:51:20.201Z,21.50
2018-05-25T21:53:48.485Z,21.50
2018-05-25T21:56:16.008Z,21.50
2018-05-25T21:58:43.527Z,21.50
2018-05-25T22:01:11.041Z,21.50
2018-05-25T22:03:38.564Z,21.40
2018-05-25T22:06:06.096Z,21.40
2018-05-25T22:08:33.621Z,21.40
2018-05-25T22:11:01.139Z,21.40
2018-05-25T22:13:28.663Z,21.30
2018-05-25T22:15:56.183Z,21.30
2018-05-25T22:18:23.708Z,21.30
2018-05-25T22:20:51.232Z,21.30
2018-05-25T22:23:19.520Z,21.20
2018-05-25T22:25:47.036Z,21.20
2018-05-25T22:28:14.547Z,21.10
2018-05-25T22:30:42.072Z,21.10
2018-05-25T22:33:10.383Z,21.10
2018-05-25T22:35:37.903Z,21.00
2018-05-25T22:38:05.429Z,21.00
2018-05-25T22:40:32.967Z,20.90
2018-05-25T22:43:12.178Z,20.90
2018-05-25T22:45:51.500Z,20.80
2018-05-25T22:48:31.840Z,20.80
2018-05-25T22:51:11.196Z,20.80
2018-05-25T22:56:39.256Z,20.70
2018-05-25T22:59:06.781Z,20.70
2018-05-25T23:01:34.303Z,20.70
2018-05-25T23:04:01.822Z,20.70
2018-05-25T23:06:29.339Z,20.70
2018-05-25T23:08:57.641Z,20.70
2018-05-25T23:11:25.164Z,20.70
2018-05-25T23:13:52.689Z,20.70
2018-05-25T23:16:20.211Z,20.60
2018-05-25T23:18:48.491Z,20.70
2018-05-25T23:21:16.003Z,20.60
2018-05-25T23:23:43.514Z,20.60
2018-05-25T23:26:11.032Z,20.60
2018-05-25T23:28:38.571Z,20.60
2018-05-25T23:31:06.091Z,20.50
2018-05-25T23:33:35.870Z,20.50
2018-05-25T23:36:03.391Z,20.50
2018-05-25T23:38:30.906Z,20.50
2018-05-25T23:40:59.191Z,20.50
2018-05-25T23:43:26.711Z,20.40
2018-05-25T23:45:54.224Z,20.40
2018-05-25T23:48:21.751Z,20.40
2018-05-25T23:50:49.276Z,20.40
2018-05-25T23:53:16.799Z,20.40
2018-05-25T23:55:44.321Z,20.40
2018-05-25T23:58:11.838Z,20.40
